Flight Track Log - Related Links

Times and Time Zones

All times are in EST time to prevent confusion due to time zone crossing. See the N75AW flight status page for this flight to view local times or setup timezone preferences in your user account.

Time Position Orientation Groundspeed Altitude Reporting Facility
EST Latitude Longitude Course Direction KTS MPH feet Rate Location/Type
Thu 08:51:27 AM 25.9633 -81.6767 155° Southeast 213 245 4,800  Level Miami Center
Thu 08:52:27 AM 25.9136 -81.6633 166° South 196 226 6,500 1,600 Climbing Miami Center
Thu 08:53:27 AM 25.8622 -81.6450 162° South 196 226 8,000 1,500 Climbing Miami Center
Thu 08:54:00 AM 25.7633 -81.6561 156° South  Level Estimated
Thu 08:54:27 AM 25.8106 -81.6269 163° South 196 226 9,500  Level Miami Center
Thu 08:55:00 AM 25.7023 -81.6244 155° Southeast  Level FlightAware Approximate
Thu 08:55:27 AM 25.7589 -81.6064 160° South 196 226 10,900  Level Miami Center
Thu 08:56:27 AM 25.7011 -81.5881 164° South 202 232 12,600 1,500 Climbing Miami Center
Thu 08:57:27 AM 25.6475 -81.5650 159° South 202 232 13,900 1,350 Climbing Miami Center
Thu 08:58:27 AM 25.5939 -81.5469 163° South 202 232 15,300 1,350 Climbing Miami Center
Thu 08:59:27 AM 25.5383 -81.5239 159° South 202 232 16,600 1,300 Climbing Miami Center
Thu 09:00:27 AM 25.4803 -81.5033 162° South 208 239 17,900 1,200 Climbing Miami Center
Thu 09:01:27 AM 25.4269 -81.4736 153° Southeast 208 239 19,000 1,200 Climbing Miami Center
Thu 09:02:27 AM 25.3756 -81.4464 154° Southeast 208 239 20,300 1,250 Climbing Miami Center
Thu 09:03:27 AM 25.3244 -81.4192 154° Southeast 208 239 21,500 1,100 Climbing Miami Center
Thu 09:04:27 AM 25.2731 -81.3922 155° Southeast 208 239 22,500 950 Climbing Miami Center
Thu 09:05:27 AM 25.2217 -81.3650 154° Southeast 213 245 23,400 850 Climbing Miami Center
Thu 09:06:27 AM 25.1661 -81.3353 154° Southeast 213 245 24,200 800 Climbing Miami Center
Thu 09:07:27 AM 25.1128 -81.3058 153° Southeast 213 245 25,000 450 Climbing Miami Center
Thu 09:08:27 AM 25.0572 -81.2764 154° Southeast 213 245 25,100 50 Climbing Miami Center
Thu 09:09:27 AM 24.9914 -81.2419 155° Southeast 233 268 25,100  Level Miami Center
Thu 09:10:27 AM 24.9256 -81.2075 155° Southeast 255 293 25,100  Level Miami Center
Thu 09:11:27 AM 24.8531 -81.1911 168° South 263 303 25,100  Level Miami Center
Thu 09:12:27 AM 24.7794 -81.2000 186° South 263 303 25,100  Level Miami Center
Thu 09:13:27 AM 24.7042 -81.2111 188° South 268 308 25,100  Level Miami Center
Thu 09:14:27 AM 24.6306 -81.2244 189° South 273 314 25,100  Level Miami Center
Thu 09:15:27 AM 24.5572 -81.2333 186° South 278 320 25,100  Level Miami Center
Thu 09:16:27 AM 24.4797 -81.2444 187° South 278 320 25,100  Level Miami Center
Thu 09:17:27 AM 24.4042 -81.2553 187° South 278 320 25,100  Level Miami Center
Thu 09:18:27 AM 24.3286 -81.2664 188° South 278 320 25,100  Level Miami Center
Thu 09:19:27 AM 24.2553 -81.2775 188° South 278 320 25,100  Level Miami Center
Thu 09:20:27 AM 24.1778 -81.2839 184° South 278 320 25,100  Level Miami Center
Thu 09:21:27 AM 24.1044 -81.2903 185° South 273 314 25,100  Level Miami Center
Thu 09:22:27 AM 24.0269 -81.2967 184° South 273 314 25,100  Level Miami Center
Thu 09:24:00 AM 23.9186 -81.2892 184° South  Level FlightAware Approximate
Thu 09:31:00 AM 23.4304 -81.3341 185° South  Level FlightAware Approximate
Thu 09:32:00 AM 23.3608 -81.3411 185° South  Level FlightAware Approximate
Thu 09:33:00 AM 23.2911 -81.3482 185° South  Level FlightAware Approximate
Thu 09:34:00 AM 23.2214 -81.3552 185° South  Level FlightAware Approximate
Thu 09:35:00 AM 23.1517 -81.3622 185° South  Level FlightAware Approximate
Thu 09:36:00 AM 23.0820 -81.3692 185° South  Level FlightAware Approximate
Thu 09:37:00 AM 23.0123 -81.3762 185° South  Level FlightAware Approximate
Thu 09:38:00 AM 22.9426 -81.3832 185° South  Level FlightAware Approximate
Thu 09:39:00 AM 22.8729 -81.3902 185° South  Level FlightAware Approximate
Thu 09:40:00 AM 22.8032 -81.3972 185° South  Level FlightAware Approximate
Thu 09:41:00 AM 22.7335 -81.4042 185° South  Level FlightAware Approximate
Thu 09:42:00 AM 22.6639 -81.4111 185° South  Level FlightAware Approximate
Thu 09:43:00 AM 22.5942 -81.4181 185° South  Level FlightAware Approximate
Thu 09:44:00 AM 22.5245 -81.4251 185° South  Level FlightAware Approximate
Thu 09:45:00 AM 22.4548 -81.4320 185° South  Level FlightAware Approximate
Thu 09:46:00 AM 22.3851 -81.4389 185° South  Level FlightAware Approximate
Thu 09:47:00 AM 22.3154 -81.4459 185° South  Level FlightAware Approximate
Thu 09:48:00 AM 22.2457 -81.4528 185° South  Level FlightAware Approximate
Thu 09:49:00 AM 22.1760 -81.4597 185° South  Level FlightAware Approximate
Thu 09:50:00 AM 22.1063 -81.4666 185° South  Level FlightAware Approximate
Thu 09:51:00 AM 22.0366 -81.4735 185° South  Level FlightAware Approximate
Thu 09:52:00 AM 21.9669 -81.4805 185° South  Level FlightAware Approximate
Thu 09:53:00 AM 21.8973 -81.4873 185° South  Level FlightAware Approximate
Thu 09:54:00 AM 21.8276 -81.4942 185° South  Level FlightAware Approximate
Thu 09:55:00 AM 21.7579 -81.5011 185° South  Level FlightAware Approximate
Thu 09:56:00 AM 21.6882 -81.5080 185° South  Level FlightAware Approximate
Thu 09:57:00 AM 21.6185 -81.5148 185° South  Level FlightAware Approximate
Thu 09:58:00 AM 21.5601 -81.4817 141° Southeast  Level FlightAware Approximate
Thu 09:59:00 AM 21.5059 -81.4342 141° Southeast  Level FlightAware Approximate
Thu 10:00:00 AM 21.4516 -81.3867 141° Southeast  Level FlightAware Approximate
Thu 10:01:00 AM 21.3973 -81.3393 141° Southeast  Level FlightAware Approximate
Thu 10:02:00 AM 21.3430 -81.2918 141° Southeast  Level FlightAware Approximate
Thu 10:03:00 AM 21.2887 -81.2445 141° Southeast  Level FlightAware Approximate
Thu 10:04:00 AM 21.2344 -81.1971 141° Southeast  Level FlightAware Approximate
Thu 10:05:00 AM 21.1800 -81.1498 141° Southeast  Level FlightAware Approximate
Thu 10:06:00 AM 21.1257 -81.1025 141° Southeast  Level FlightAware Approximate
Thu 10:07:00 AM 21.0713 -81.0553 141° Southeast  Level FlightAware Approximate
Thu 10:08:00 AM 21.0170 -81.0081 141° Southeast  Level FlightAware Approximate
Thu 10:09:00 AM 20.9626 -80.9609 141° Southeast  Level FlightAware Approximate
Thu 10:10:00 AM 20.9082 -80.9137 141° Southeast  Level FlightAware Approximate
Thu 10:11:00 AM 20.8538 -80.8665 141° Southeast  Level FlightAware Approximate
Thu 10:12:00 AM 20.7994 -80.8194 141° Southeast  Level FlightAware Approximate
Thu 10:13:00 AM 20.7451 -80.7723 141° Southeast  Level FlightAware Approximate
Thu 10:14:00 AM 20.6907 -80.7252 141° Southeast  Level FlightAware Approximate
Thu 10:15:00 AM 20.6364 -80.6779 141° Southeast  Level FlightAware Approximate
Thu 10:16:00 AM 20.5822 -80.6307 141° Southeast  Level FlightAware Approximate
Thu 10:17:00 AM 20.5280 -80.5835 141° Southeast  Level FlightAware Approximate
Thu 10:18:00 AM 20.4737 -80.5363 141° Southeast  Level FlightAware Approximate
Thu 10:19:00 AM 20.4194 -80.4891 141° Southeast  Level FlightAware Approximate
Thu 10:20:00 AM 20.3651 -80.4420 141° Southeast  Level FlightAware Approximate
Thu 10:21:00 AM 20.3108 -80.3949 141° Southeast  Level FlightAware Approximate
Thu 10:22:00 AM 20.2568 -80.3475 141° Southeast  Level FlightAware Approximate
Thu 10:23:00 AM 20.2027 -80.3002 141° Southeast  Level FlightAware Approximate
Thu 10:24:00 AM 20.1490 -80.2524 140° Southeast  Level FlightAware Approximate
Thu 10:25:00 AM 20.0955 -80.2043 140° Southeast  Level FlightAware Approximate
Thu 10:26:00 AM 20.0421 -80.1562 140° Southeast  Level FlightAware Approximate
Thu 10:27:00 AM 19.9885 -80.1084 146° Southeast  Level FlightAware Approximate
Thu 10:28:00 AM 19.9304 -80.0669 146° Southeast  Level FlightAware Approximate
Thu 10:29:00 AM 19.8736 -80.0236 137° Southeast  Level FlightAware Approximate
Thu 10:30:00 AM 19.8155 -79.9825 145° Southeast  Level FlightAware Approximate
Thu 10:31:00 AM 19.7583 -79.9396 145° Southeast  Level FlightAware Approximate
Thu 10:32:00 AM 19.7022 -79.8951 143° Southeast  Level FlightAware Approximate
Thu 10:33:00 AM 19.6868 -79.8829 143° Southeast  Level Estimated
Thu 10:34:00 AM 19.6868 -79.8829 143° Southeast  Level Estimated
Thu 10:35:00 AM 19.6868 -79.8829 143° Southeast  Level Estimated
Thu 10:36:00 AM 19.6868 -79.8829 143° Southeast  Level Estimated
Thu 10:37:00 AM 19.6868 -79.8829 143° Southeast  Level Estimated
Thu 10:38:00 AM 19.6868 -79.8829 143° Southeast  Level Estimated
Thu 10:39:00 AM 19.6868 -79.8829 143° Southeast  Level Estimated
Thu 10:40:00 AM 19.6868 -79.8829 143° Southeast  Level Estimated
Thu 10:41:00 AM 19.6868 -79.8829 143° Southeast  Level Estimated
Thu 10:42:00 AM 19.6868 -79.8829 143° Southeast  Level Estimated
Thu 10:43:00 AM 19.6868 -79.8829 143° Southeast  Level Estimated
Thu 10:44:00 AM 19.6868 -79.8829 143° Southeast  Level Estimated
Thu 10:45:00 AM 19.6868 -79.8829 143° Southeast  Level Estimated
Thu 10:46:00 AM 19.6868 -79.8829 143° Southeast  Level Estimated

Login

Don't have an account? Register now (free) for customized features, flight alerts, and more!